Aeroporto :
LOGIN :

Iscrizione | Disclaimer

   EN    FR    IT 

 










Sommario :    VFR   VFR Marginale   IFR   IFR Intensivo   IFR Molto Intensivo
Visibilità : 
Base nubi : 
>= 8 km
>= 3000ft
5 / 8 km
1000 / 3000 ft
1500m / 5 km
500 / 1000 ft
800 / 1500m
200 / 500 ft
< 800m
< 200 ft
Simboli :   Temporali  Nebbia  Neve Forte  Precipitazioni Forti  Vento > 20 kt
SIGMETs :   Varie  Temporali  Ghiacco  Turbolenza  Onda orograficha  Ceneri Vulcaniche






- Altitudine del aeroporto : 328 ft
- Codice IATA : PGX


LFBX - Périgueux Bassillac

ULTIMO METAR :
  • 151330Z AUTO 25006KT 200V290 9999 FEW019 BKN070 OVC096 24/20 Q1012

METARs OBSOLETI :
  • 151300Z AUTO 26004KT 230V290 9999 FEW012/// BKN068/// OVC088/// ///TCU 22/20 Q1012
  • 151230Z AUTO VRB02KT 9999 -RA FEW029/// SCT049/// BKN096/// ///TCU 21/20 Q1012
  • 151200Z AUTO 22004KT 150V280 9999 -RA FEW049/// SCT074/// BKN094/// //////CB 21/19 Q1012
  • 151130Z AUTO 21004KT 130V270 9999 -RA FEW029/// OVC092/// //////CB 21/18 Q1012
  • 151100Z AUTO 25010KT 220V280 9999 -RA ///CB 23/19 Q1011
  • 151030Z AUTO 25013KT 220V280 9999 SCT040/// BKN100/// BKN140/// ///CB 26/18 Q1011
  • 151000Z AUTO 23010KT 190V260 CAVOK 28/19 Q1009
  • 150930Z AUTO VRB06KT CAVOK 28/20 Q1009

TAF N/A



MetMap, La meteo Aeronautica in un colpo d'occhio ! - Copyright ORBIFLY Dicembre 2007 - Disclaimer

ORBIFLY MET'MAP TEAM :

Programmazione e sviluppo : Alexandra Zaïnal
Concezione : Baudouin d'Aumeries
Supporto tecnico e logistico : Manuel Goepfert
Aiuto : Marc-Olivier Méhu
Aiuto per la traduzione : Arnaldo La Scala




FONTI E CREDITI :

   NOAA